createdAt,value
2023-03-15T00:01:48.865Z,64.40
2023-03-15T00:04:36.616Z,63.59
2023-03-15T00:07:25.214Z,62.15
2023-03-15T00:10:11.797Z,61.11
2023-03-15T00:12:58.223Z,60.17
2023-03-15T00:15:56.255Z,59.29
2023-03-15T00:18:43.437Z,60.02
2023-03-15T00:21:30.028Z,63.85
2023-03-15T00:24:16.349Z,63.10
2023-03-15T00:27:03.102Z,62.50
2023-03-15T00:29:49.798Z,60.84
2023-03-15T00:32:36.142Z,59.84
2023-03-15T00:35:23.447Z,58.35
2023-03-15T00:38:10.769Z,59.79
2023-03-15T00:40:57.229Z,63.96
2023-03-15T00:43:45.065Z,64.70
2023-03-15T00:46:31.806Z,63.57
2023-03-15T00:49:18.268Z,61.59
2023-03-15T00:52:07.376Z,60.03
2023-03-15T00:54:55.318Z,58.10
2023-03-15T00:57:44.721Z,58.83
2023-03-15T01:00:31.507Z,63.74
2023-03-15T01:03:18.064Z,63.93
2023-03-15T01:06:11.440Z,62.51
2023-03-15T01:08:58.307Z,61.44
2023-03-15T01:11:44.712Z,59.89
2023-03-15T01:14:30.894Z,58.58
2023-03-15T01:17:18.401Z,60.53
2023-03-15T01:20:06.272Z,63.17
2023-03-15T01:22:52.760Z,63.14
2023-03-15T01:25:39.908Z,61.93
2023-03-15T01:28:26.558Z,60.29
2023-03-15T01:31:20.640Z,59.14
2023-03-15T01:34:08.131Z,58.76
2023-03-15T01:36:54.556Z,62.44
2023-03-15T01:39:48.233Z,63.99
2023-03-15T01:42:53.477Z,63.17
2023-03-15T01:46:01.779Z,61.22
2023-03-15T01:48:56.218Z,60.48
2023-03-15T01:52:01.425Z,59.02
2023-03-15T01:55:18.918Z,61.59
2023-03-15T01:58:27.057Z,64.45
2023-03-15T02:01:16.260Z,63.14
2023-03-15T02:04:11.873Z,61.58
2023-03-15T02:07:03.192Z,60.44
2023-03-15T02:10:02.900Z,59.39
2023-03-15T02:12:52.780Z,59.61
2023-03-15T02:15:39.433Z,62.71
2023-03-15T02:18:26.176Z,63.55
2023-03-15T02:21:20.970Z,61.65
2023-03-15T02:24:59.822Z,60.82
2023-03-15T02:27:46.145Z,58.90
2023-03-15T02:30:35.092Z,59.88
2023-03-15T02:33:28.907Z,62.48
2023-03-15T02:36:21.035Z,63.99
2023-03-15T02:39:18.636Z,62.91
2023-03-15T02:42:05.664Z,60.94
2023-03-15T02:44:53.783Z,59.88
2023-03-15T02:47:40.521Z,60.06
2023-03-15T02:50:27.057Z,58.37
2023-03-15T02:53:13.753Z,58.96
2023-03-15T02:56:00.108Z,61.45
2023-03-15T02:58:47.164Z,64.49
2023-03-15T03:01:36.583Z,63.64
2023-03-15T03:04:23.224Z,61.18
2023-03-15T03:07:09.831Z,60.11
2023-03-15T03:10:10.730Z,58.46
2023-03-15T03:13:04.923Z,58.26
2023-03-15T03:15:57.904Z,62.56
2023-03-15T03:18:45.922Z,64.41
2023-03-15T03:21:32.794Z,62.65
2023-03-15T03:24:20.082Z,60.96
2023-03-15T03:27:06.891Z,59.28
2023-03-15T03:29:55.411Z,59.07
2023-03-15T03:32:42.239Z,62.90
2023-03-15T03:35:31.237Z,63.51
2023-03-15T03:38:17.689Z,62.89
2023-03-15T03:41:10.179Z,61.39
2023-03-15T03:43:57.602Z,60.98
2023-03-15T03:46:44.719Z,58.80
2023-03-15T03:49:31.780Z,58.58
2023-03-15T03:52:18.343Z,61.23
2023-03-15T03:55:05.364Z,65.01
2023-03-15T03:57:54.803Z,63.73
2023-03-15T04:01:04.957Z,63.07
2023-03-15T04:03:51.584Z,60.83
2023-03-15T04:06:44.962Z,58.93
2023-03-15T04:09:36.628Z,58.87
2023-03-15T04:12:23.782Z,59.09
2023-03-15T04:15:12.584Z,63.59
2023-03-15T04:17:59.489Z,64.79
2023-03-15T04:20:53.972Z,62.52
2023-03-15T04:23:40.904Z,61.31
2023-03-15T04:26:37.411Z,60.83
2023-03-15T04:29:46.312Z,59.24
2023-03-15T04:33:03.297Z,59.51
2023-03-15T04:36:27.978Z,62.40
2023-03-15T04:39:33.326Z,63.15
2023-03-15T04:42:44.850Z,61.67
2023-03-15T04:45:54.477Z,61.39
2023-03-15T04:49:02.736Z,60.30
2023-03-15T04:52:12.121Z,58.34
2023-03-15T04:55:17.433Z,59.99
2023-03-15T04:58:26.656Z,63.35
2023-03-15T05:01:37.095Z,64.08
2023-03-15T05:04:38.023Z,63.48
2023-03-15T05:07:58.928Z,61.69
2023-03-15T05:11:08.397Z,60.22
2023-03-15T05:14:04.005Z,59.63
2023-03-15T05:17:10.606Z,58.03
2023-03-15T05:20:32.501Z,59.73
2023-03-15T05:23:39.586Z,63.98
2023-03-15T05:26:26.172Z,65.97
2023-03-15T05:29:31.124Z,65.06
2023-03-15T05:32:44.103Z,62.20
2023-03-15T05:35:48.242Z,59.35
2023-03-15T05:38:37.222Z,60.35
2023-03-15T05:41:43.899Z,63.16
2023-03-15T05:45:09.306Z,63.12
2023-03-15T05:48:34.082Z,61.20
2023-03-15T05:51:34.153Z,59.65
2023-03-15T05:54:39.464Z,58.42
2023-03-15T05:57:44.231Z,60.76
2023-03-15T06:00:41.623Z,64.37
2023-03-15T06:03:32.956Z,64.05
2023-03-15T06:06:23.330Z,62.02
2023-03-15T06:09:09.881Z,60.26
2023-03-15T06:11:56.879Z,58.65
2023-03-15T06:14:43.833Z,59.04
2023-03-15T06:17:31.535Z,61.17
2023-03-15T06:20:18.659Z,64.20
2023-03-15T06:23:05.246Z,63.85
2023-03-15T06:25:58.906Z,61.65
2023-03-15T06:28:48.147Z,60.63
2023-03-15T06:31:35.001Z,59.41
2023-03-15T06:34:27.541Z,61.45
2023-03-15T06:37:22.852Z,63.72
2023-03-15T06:40:15.884Z,62.71
2023-03-15T06:43:05.451Z,60.34
2023-03-15T06:45:58.068Z,57.54
2023-03-15T06:48:44.831Z,60.36
2023-03-15T06:51:31.730Z,62.28
2023-03-15T06:54:18.170Z,63.17
2023-03-15T06:57:04.869Z,61.68
2023-03-15T06:59:53.437Z,59.22
2023-03-15T07:02:40.236Z,58.42
2023-03-15T07:05:26.990Z,61.72
2023-03-15T07:08:13.466Z,63.80
2023-03-15T07:11:02.460Z,62.46
2023-03-15T07:13:49.217Z,58.48
2023-03-15T07:16:35.802Z,54.94
2023-03-15T07:19:22.271Z,54.11
2023-03-15T07:22:08.931Z,52.33
2023-03-15T07:24:55.236Z,51.07
2023-03-15T07:27:41.576Z,52.05
2023-03-15T07:30:27.861Z,51.48
2023-03-15T07:33:14.363Z,49.03
2023-03-15T07:36:03.642Z,48.91
2023-03-15T07:38:50.364Z,46.77
2023-03-15T07:41:36.812Z,47.89
2023-03-15T07:44:26.584Z,48.45
2023-03-15T07:47:13.034Z,47.48
2023-03-15T07:49:59.760Z,45.97
2023-03-15T07:52:46.194Z,44.32
2023-03-15T07:55:35.371Z,41.61
2023-03-15T07:58:22.688Z,36.93
2023-03-15T08:01:09.157Z,37.01
2023-03-15T08:03:55.304Z,35.84
2023-03-15T08:06:41.897Z,37.52
2023-03-15T08:09:28.111Z,37.35
2023-03-15T08:12:14.769Z,36.31
2023-03-15T08:15:01.260Z,36.57
2023-03-15T08:17:48.719Z,34.71
2023-03-15T08:20:34.837Z,34.17
2023-03-15T08:23:21.604Z,34.55
2023-03-15T08:26:08.175Z,35.54
2023-03-15T08:28:54.636Z,36.63
2023-03-15T08:31:41.210Z,37.46
2023-03-15T08:34:27.598Z,37.95
2023-03-15T08:37:14.191Z,37.93
2023-03-15T08:40:05.008Z,36.97
2023-03-15T08:42:53.360Z,34.09
2023-03-15T08:45:59.545Z,33.35
2023-03-15T08:48:46.393Z,33.71
2023-03-15T08:51:33.105Z,33.32
2023-03-15T08:54:19.549Z,33.21
2023-03-15T08:57:06.103Z,30.51
2023-03-15T08:59:53.263Z,29.44
2023-03-15T09:02:39.682Z,29.94
2023-03-15T09:05:26.681Z,30.18
2023-03-15T09:08:16.351Z,30.40
2023-03-15T09:11:04.773Z,31.82
2023-03-15T09:13:51.425Z,32.14
2023-03-15T09:16:37.727Z,32.31
2023-03-15T09:19:24.188Z,33.56
2023-03-15T09:22:23.440Z,35.10
2023-03-15T09:25:10.534Z,34.64
2023-03-15T09:27:57.041Z,32.73
2023-03-15T09:30:43.323Z,31.43
2023-03-15T09:33:32.542Z,29.47
2023-03-15T09:36:19.062Z,27.81
2023-03-15T09:39:05.498Z,27.31
2023-03-15T09:41:58.331Z,26.72
2023-03-15T09:44:58.862Z,24.34
2023-03-15T09:48:24.511Z,23.13
2023-03-15T09:51:22.939Z,23.14
2023-03-15T09:54:27.009Z,23.12
2023-03-15T09:57:36.167Z,21.67
2023-03-15T10:00:40.458Z,21.62
2023-03-15T10:03:37.783Z,22.48
2023-03-15T10:06:37.803Z,22.17
2023-03-15T10:09:32.403Z,21.99
2023-03-15T10:12:30.582Z,21.56
2023-03-15T10:15:47.144Z,21.50
2023-03-15T10:19:27.674Z,21.78
2023-03-15T10:22:59.336Z,20.89
2023-03-15T10:25:50.518Z,21.02
2023-03-15T10:28:38.559Z,20.18
2023-03-15T10:31:44.065Z,19.86
2023-03-15T10:34:31.824Z,17.83
2023-03-15T10:37:19.670Z,17.29
2023-03-15T10:40:10.359Z,18.16
2023-03-15T10:42:57.489Z,18.75
2023-03-15T10:46:07.358Z,18.52
2023-03-15T10:49:11.538Z,20.78
2023-03-15T10:51:58.293Z,20.97
2023-03-15T10:54:46.443Z,21.23
2023-03-15T10:57:50.143Z,21.80
2023-03-15T11:00:37.093Z,21.96
2023-03-15T11:03:25.523Z,21.59
2023-03-15T11:06:28.210Z,19.92
2023-03-15T11:09:25.482Z,18.82
2023-03-15T11:12:30.391Z,18.71
2023-03-15T11:15:18.856Z,19.96
2023-03-15T11:18:06.216Z,21.21
2023-03-15T11:20:55.828Z,21.31
2023-03-15T11:23:49.288Z,21.08
2023-03-15T11:26:40.466Z,20.33
2023-03-15T11:29:34.988Z,18.99
2023-03-15T11:32:26.408Z,19.07
2023-03-15T11:35:28.136Z,19.15
2023-03-15T11:38:29.667Z,19.50
2023-03-15T11:42:05.010Z,19.00
2023-03-15T11:44:58.492Z,18.86
2023-03-15T11:48:04.821Z,19.35
2023-03-15T11:50:57.064Z,19.53
2023-03-15T11:54:06.202Z,19.71
2023-03-15T11:57:02.767Z,20.19
2023-03-15T11:59:48.965Z,20.27
2023-03-15T12:02:48.753Z,20.34
2023-03-15T12:05:51.899Z,20.28
2023-03-15T12:08:50.876Z,20.41
2023-03-15T12:11:40.460Z,19.99
2023-03-15T12:14:36.669Z,20.21
2023-03-15T12:17:28.553Z,20.99
2023-03-15T12:20:17.218Z,21.47
2023-03-15T12:23:30.323Z,21.79
2023-03-15T12:26:25.808Z,22.72
2023-03-15T12:29:23.637Z,23.96
2023-03-15T12:32:18.349Z,24.44
2023-03-15T12:35:17.084Z,24.29
2023-03-15T12:38:22.784Z,23.98
2023-03-15T12:41:40.127Z,24.17
2023-03-15T12:44:40.511Z,24.74
2023-03-15T12:47:46.010Z,25.56
2023-03-15T12:50:37.283Z,26.57
2023-03-15T12:53:53.210Z,27.33
2023-03-15T12:56:53.744Z,28.00
2023-03-15T13:00:11.186Z,28.74
2023-03-15T13:03:18.486Z,29.70
2023-03-15T13:06:38.023Z,31.01
2023-03-15T13:09:30.991Z,32.94
2023-03-15T13:12:47.415Z,34.04
2023-03-15T13:15:57.883Z,34.75
2023-03-15T13:19:04.743Z,35.22
2023-03-15T13:22:30.741Z,35.74
2023-03-15T13:25:43.010Z,36.43
2023-03-15T13:28:46.235Z,37.56
2023-03-15T13:31:33.458Z,37.95
2023-03-15T13:34:23.586Z,38.48
2023-03-15T13:37:28.467Z,38.59
2023-03-15T13:40:15.385Z,38.64
2023-03-15T13:43:01.882Z,39.14
2023-03-15T13:45:48.402Z,38.83
2023-03-15T13:48:40.478Z,39.08
2023-03-15T13:51:34.608Z,39.54
2023-03-15T13:54:33.582Z,40.02
2023-03-15T13:57:22.137Z,39.87
2023-03-15T14:00:19.253Z,39.90
2023-03-15T14:03:16.575Z,39.97
2023-03-15T14:06:03.294Z,39.72
2023-03-15T14:09:00.587Z,39.74
2023-03-15T14:12:01.812Z,40.00
2023-03-15T14:14:53.137Z,40.20
2023-03-15T14:18:03.132Z,40.10
2023-03-15T14:21:21.174Z,40.47
2023-03-15T14:24:13.486Z,40.50
2023-03-15T14:27:17.522Z,40.50
2023-03-15T14:30:19.387Z,40.11
2023-03-15T14:33:08.131Z,40.30
2023-03-15T14:35:59.181Z,40.43
2023-03-15T14:38:53.269Z,40.56
2023-03-15T14:41:40.895Z,40.82
2023-03-15T14:44:27.513Z,40.96
2023-03-15T14:47:16.552Z,41.31
2023-03-15T14:50:03.472Z,41.54
2023-03-15T14:52:51.256Z,41.76
2023-03-15T14:55:37.776Z,41.44
2023-03-15T14:58:24.268Z,40.64
2023-03-15T15:01:19.180Z,39.86
2023-03-15T15:04:06.364Z,39.76
2023-03-15T15:06:55.287Z,39.46
2023-03-15T15:09:49.582Z,39.06
2023-03-15T15:12:35.987Z,39.19
2023-03-15T15:15:22.673Z,39.16
2023-03-15T15:18:09.114Z,39.55
2023-03-15T15:20:57.828Z,39.95
2023-03-15T15:23:57.539Z,40.12
2023-03-15T15:26:46.669Z,40.56
2023-03-15T15:29:33.181Z,40.95
2023-03-15T15:32:19.818Z,40.17
2023-03-15T15:35:08.224Z,41.67
2023-03-15T15:37:55.114Z,43.93
2023-03-15T15:40:42.008Z,45.51
2023-03-15T15:43:28.856Z,47.06
2023-03-15T15:46:15.529Z,49.66
2023-03-15T15:49:02.087Z,49.55
2023-03-15T15:51:49.157Z,49.13
2023-03-15T15:54:35.780Z,49.41
2023-03-15T15:57:26.015Z,49.37
2023-03-15T16:00:20.421Z,50.18
2023-03-15T16:03:15.767Z,51.48
2023-03-15T16:06:02.153Z,50.80
2023-03-15T16:08:52.090Z,50.89
2023-03-15T16:11:39.306Z,51.08
2023-03-15T16:14:25.976Z,51.64
2023-03-15T16:17:22.326Z,51.78
2023-03-15T16:20:10.937Z,52.43
2023-03-15T16:23:00.112Z,52.87
2023-03-15T16:25:55.816Z,52.89
2023-03-15T16:28:43.328Z,53.80
2023-03-15T16:31:36.675Z,54.59
2023-03-15T16:34:24.517Z,55.39
2023-03-15T16:37:28.580Z,55.22
2023-03-15T16:40:25.975Z,55.56
2023-03-15T16:43:13.176Z,56.01
2023-03-15T16:46:00.406Z,56.14
2023-03-15T16:48:48.052Z,56.08
2023-03-15T16:51:38.631Z,56.64
2023-03-15T16:54:40.308Z,56.38
2023-03-15T16:57:32.330Z,56.91
2023-03-15T17:00:24.993Z,57.51
2023-03-15T17:03:12.543Z,57.97
2023-03-15T17:06:00.812Z,58.17
2023-03-15T17:09:01.400Z,59.26
2023-03-15T17:11:55.575Z,57.75
2023-03-15T17:14:43.627Z,58.62
2023-03-15T17:17:36.301Z,57.75
2023-03-15T17:20:26.621Z,59.74
2023-03-15T17:23:15.520Z,58.87
2023-03-15T17:26:03.180Z,58.78
2023-03-15T17:28:50.334Z,58.55
2023-03-15T17:31:44.328Z,58.86
2023-03-15T17:34:33.316Z,58.67
2023-03-15T17:37:20.519Z,59.16
2023-03-15T17:40:21.196Z,59.84
2023-03-15T17:43:14.036Z,59.13
2023-03-15T17:46:00.491Z,60.10
2023-03-15T17:48:48.788Z,59.97
2023-03-15T17:51:36.956Z,59.49
2023-03-15T17:54:24.099Z,60.45
2023-03-15T17:57:14.205Z,59.95
2023-03-15T18:00:01.026Z,60.48
2023-03-15T18:02:59.582Z,60.51
2023-03-15T18:05:46.928Z,60.74
2023-03-15T18:08:33.551Z,64.10
2023-03-15T18:11:25.813Z,69.30
2023-03-15T18:14:15.303Z,66.71
2023-03-15T18:17:05.208Z,62.80
2023-03-15T18:19:52.134Z,58.40
2023-03-15T18:22:40.507Z,52.54
2023-03-15T18:25:31.438Z,52.81
2023-03-15T18:28:17.609Z,54.05
2023-03-15T18:31:04.307Z,54.62
2023-03-15T18:33:53.299Z,56.00
2023-03-15T18:36:40.298Z,56.44
2023-03-15T18:39:26.834Z,57.82
2023-03-15T18:42:12.930Z,58.34
2023-03-15T18:45:00.329Z,58.86
2023-03-15T18:47:47.114Z,59.33
2023-03-15T18:50:34.333Z,58.67
2023-03-15T18:53:20.649Z,59.29
2023-03-15T18:56:13.103Z,60.04
2023-03-15T18:59:01.288Z,60.15
2023-03-15T19:01:48.694Z,60.72
2023-03-15T19:04:35.042Z,60.47
2023-03-15T19:07:21.457Z,60.79
2023-03-15T19:10:12.980Z,62.53
2023-03-15T19:12:59.505Z,66.53
2023-03-15T19:15:47.137Z,64.55
2023-03-15T19:18:34.376Z,62.78
2023-03-15T19:21:21.346Z,56.47
2023-03-15T19:24:08.342Z,54.82
2023-03-15T19:26:54.843Z,54.83
2023-03-15T19:29:41.351Z,54.83
2023-03-15T19:32:29.295Z,56.27
2023-03-15T19:35:18.654Z,57.20
2023-03-15T19:38:05.728Z,59.45
2023-03-15T19:40:54.656Z,59.79
2023-03-15T19:43:42.737Z,59.62
2023-03-15T19:46:29.190Z,61.53
2023-03-15T19:49:15.741Z,64.39
2023-03-15T19:52:02.945Z,59.16
2023-03-15T19:54:51.145Z,56.16
2023-03-15T19:57:40.905Z,56.45
2023-03-15T20:00:27.600Z,57.95
2023-03-15T20:03:15.192Z,58.85
2023-03-15T20:06:15.913Z,59.84
2023-03-15T20:09:04.682Z,60.77
2023-03-15T20:11:51.541Z,60.94
2023-03-15T20:14:38.399Z,63.45
2023-03-15T20:17:26.373Z,67.96
2023-03-15T20:20:14.130Z,67.64
2023-03-15T20:23:01.244Z,65.74
2023-03-15T20:25:49.644Z,63.16
2023-03-15T20:28:41.327Z,62.04
2023-03-15T20:31:27.986Z,58.71
2023-03-15T20:34:16.692Z,54.44
2023-03-15T20:37:03.236Z,53.71
2023-03-15T20:39:49.405Z,53.88
2023-03-15T20:42:35.770Z,55.56
2023-03-15T20:45:21.849Z,56.41
2023-03-15T20:48:08.665Z,56.91
2023-03-15T20:50:57.422Z,58.12
2023-03-15T20:53:44.144Z,59.05
2023-03-15T20:56:31.227Z,60.04
2023-03-15T20:59:17.770Z,61.02
2023-03-15T21:02:04.475Z,61.85
2023-03-15T21:04:51.183Z,63.32
2023-03-15T21:07:38.471Z,66.80
2023-03-15T21:10:25.231Z,65.78
2023-03-15T21:13:15.211Z,64.61
2023-03-15T21:16:05.661Z,63.49
2023-03-15T21:18:54.239Z,60.87
2023-03-15T21:21:43.977Z,55.05
2023-03-15T21:24:38.542Z,54.72
2023-03-15T21:27:27.461Z,55.70
2023-03-15T21:30:14.710Z,57.77
2023-03-15T21:33:01.626Z,59.56
2023-03-15T21:35:49.129Z,60.08
2023-03-15T21:38:35.981Z,60.50
2023-03-15T21:41:23.950Z,61.80
2023-03-15T21:44:10.913Z,64.10
2023-03-15T21:46:58.088Z,65.54
2023-03-15T21:49:44.813Z,67.15
2023-03-15T21:52:31.949Z,64.12
2023-03-15T21:55:19.310Z,59.82
2023-03-15T21:58:05.827Z,58.24
2023-03-15T22:01:07.237Z,57.32
2023-03-15T22:03:54.092Z,57.88
2023-03-15T22:06:41.141Z,59.47
2023-03-15T22:09:27.596Z,61.04
2023-03-15T22:12:15.551Z,62.41
2023-03-15T22:15:06.250Z,64.98
2023-03-15T22:17:52.998Z,64.35
2023-03-15T22:20:39.304Z,60.32
2023-03-15T22:23:26.724Z,58.58
2023-03-15T22:26:13.265Z,57.88
2023-03-15T22:28:59.824Z,59.16
2023-03-15T22:31:46.445Z,60.87
2023-03-15T22:34:33.582Z,62.56
2023-03-15T22:37:20.052Z,63.48
2023-03-15T22:40:08.730Z,63.46
2023-03-15T22:42:56.610Z,64.15
2023-03-15T22:45:42.753Z,62.35
2023-03-15T22:48:29.710Z,60.05
2023-03-15T22:51:16.443Z,55.76
2023-03-15T22:54:02.719Z,55.87
2023-03-15T22:56:50.805Z,58.00
2023-03-15T22:59:38.918Z,58.50
2023-03-15T23:02:25.934Z,59.81
2023-03-15T23:05:13.191Z,61.05
2023-03-15T23:07:59.667Z,63.18
2023-03-15T23:10:46.110Z,64.25
2023-03-15T23:13:32.527Z,65.63
2023-03-15T23:16:19.122Z,64.83
2023-03-15T23:19:05.879Z,60.77
2023-03-15T23:21:52.423Z,58.07
2023-03-15T23:24:39.754Z,57.86
2023-03-15T23:27:26.312Z,58.26
2023-03-15T23:30:14.409Z,59.54
2023-03-15T23:33:01.913Z,60.35
2023-03-15T23:35:48.449Z,62.89
2023-03-15T23:38:35.187Z,64.32
2023-03-15T23:41:21.543Z,64.21
2023-03-15T23:44:10.085Z,59.26
2023-03-15T23:46:56.401Z,57.28
2023-03-15T23:49:42.975Z,57.79
2023-03-15T23:52:29.354Z,58.79
2023-03-15T23:55:15.824Z,61.76
2023-03-15T23:58:02.989Z,64.91
